Flag for USA

Past Weather in 39°38'08"N, 106°21'47"W, USA — Yesterday and Last 2 Weeks

Currently: 30 °F. Sunny. (Weather station: Copper Mountain - Red Cliff Pass, USA). See more current weather

Past Weather in 39°38'08"N, 106°21'47"W — Graph

°F

39°38'08"N, 106°21'47"W Temperature Yesterday

Maximum temperature yesterday: 27 °F (at 3:35 pm)
Minimum temperature yesterday: 14 °F (at 12:35 am)
Average temperature yesterday: 17 °F

High & Low Weather Summary for the Past Weeks

 TemperatureHumidityPressure
High34 °F (Feb 19, 3:15 pm)86% (Feb 12, 11:15 am)30.31 "Hg (Feb 12, 11:15 am)
Low5 °F (Feb 11, 5:15 am)3% (Feb 18, 2:15 am)29.74 "Hg (Feb 10, 2:15 pm)
Average20 °F64%30.07 "Hg
* Reported Feb 9 10:15 am — Feb 24 10:55 am, 39°38'08"N, 106°21'47"W. Weather by CustomWeather, © 2024

Note: Actual official high and low records may vary slightly from our data, if they occured in-between our weather recording intervals... More about our weather records

39°38'08"N, 106°21'47"W Weather History for the Previous 24 Hours

Scroll right to see more
 ConditionsComfort  
Time TempWeatherWind HumidityBarometerVisibility
10:55 am
Sat, Feb 24
30 °FSunny.12 mph22%30.24 "Hg10 mi
10:35 am28 °FSunny.7 mph29%30.25 "Hg10 mi
10:15 am28 °FSunny.5 mph24%30.25 "Hg10 mi
9:55 am27 °FSunny.6 mph24%30.25 "Hg10 mi
9:35 am27 °FSunny.16 mph22%30.25 "Hg10 mi
9:15 am25 °FSunny.9 mph21%30.25 "Hg10 mi
8:55 am25 °FSunny.12 mph21%30.25 "Hg10 mi
8:35 am23 °FSunny.9 mph23%30.25 "Hg10 mi
8:15 am23 °FSunny.6 mph25%30.26 "Hg10 mi
7:55 am21 °FSunny.8 mph27%30.25 "Hg10 mi
7:35 am18 °FSunny.7 mph38%30.25 "Hg10 mi
6:55 am18 °FSunny.12 mph35%30.24 "Hg10 mi
6:35 am19 °FClear.12 mph29%30.23 "Hg10 mi
6:15 am18 °FClear.13 mph35%30.23 "Hg10 mi
5:55 am18 °FClear.12 mph29%30.23 "Hg10 mi
5:35 am18 °FClear.8 mph32%30.23 "Hg10 mi
5:15 am19 °FClear.7 mph29%30.23 "Hg10 mi
4:55 am19 °FClear.8 mph29%30.23 "Hg10 mi
4:35 am19 °FClear.10 mph32%30.22 "Hg10 mi
3:55 am19 °FClear.7 mph22%30.22 "Hg10 mi
3:35 am21 °FClear.5 mph21%30.22 "Hg10 mi
2:55 am19 °FClear.10 mph29%30.22 "Hg10 mi
2:35 am19 °FClear.10 mph27%30.23 "Hg10 mi
2:15 am19 °FClear.8 mph42%30.23 "Hg10 mi
1:55 am21 °FClear.7 mph27%30.23 "Hg10 mi
1:35 am19 °FClear.12 mph27%30.23 "Hg10 mi
12:55 am18 °FClear.12 mph45%30.23 "Hg10 mi
12:35 am18 °FClear.7 mph38%30.24 "Hg10 mi
11:55 pm
Fri, Feb 23
14 °FClear.6 mph67%30.26 "Hg10 mi
11:35 pm14 °FClear.9 mph62%30.26 "Hg10 mi
11:15 pm16 °FClear.13 mph62%30.26 "Hg10 mi
10:55 pm16 °FClear.17 mph62%30.25 "Hg10 mi
10:35 pm18 °FClear.16 mph58%30.26 "Hg10 mi
10:15 pm18 °FClear.20 mph58%30.26 "Hg10 mi
9:55 pm18 °FClear.22 mph62%30.26 "Hg10 mi
9:35 pm18 °FClear.20 mph58%30.26 "Hg10 mi
9:15 pm18 °FClear.18 mph53%30.27 "Hg10 mi
8:55 pm18 °FClear.15 mph58%30.27 "Hg10 mi
8:35 pm18 °FClear.14 mph58%30.27 "Hg10 mi
8:15 pm18 °FClear.14 mph58%30.27 "Hg10 mi
7:55 pm18 °FClear.16 mph62%30.28 "Hg10 mi
7:35 pm18 °FClear.12 mph68%30.27 "Hg10 mi
6:55 pm19 °FClear.7 mph68%30.27 "Hg10 mi
6:35 pm19 °FClear.No wind73%30.26 "Hg10 mi
6:15 pm19 °FClear.5 mph68%30.25 "Hg10 mi
5:55 pm19 °FClear.3 mph68%30.25 "Hg10 mi
4:35 pm25 °FSunny.No wind46%30.25 "Hg10 mi
4:15 pm25 °FSunny.9 mph39%30.25 "Hg10 mi
3:55 pm27 °FSunny.3 mph39%30.25 "Hg10 mi
3:35 pm27 °FSunny.10 mph36%30.25 "Hg10 mi
3:15 pm25 °FSunny.9 mph36%30.25 "Hg10 mi
2:55 pm25 °FSunny.6 mph39%30.25 "Hg10 mi
2:35 pm25 °FSunny.9 mph42%30.25 "Hg10 mi
2:15 pm25 °FSunny.8 mph46%30.25 "Hg10 mi
1:35 pm23 °FScattered clouds.8 mph58%30.26 "Hg10 mi
12:55 pm21 °FPartly sunny.8 mph63%30.26 "Hg10 mi
12:35 pm21 °FPartly sunny.12 mph68%30.26 "Hg10 mi
12:15 pm19 °FScattered clouds.13 mph73%30.26 "Hg7 mi
Weather by CustomWeather, © 2024

See weather overview